Time;durP1;ratioP1;P1;durP2;ratioP2;P2;SDS_P1;SDS_P2;PMS_P1;PMS_P2;Temp;Humidity;BMP_temperature;BMP_pressure;BME280_temperature;BME280_humidity;BME280_pressure;Samples;Min_cycle;Max_cycle;Signal;HPM_P1;HPM_P2
2022/08/29 00:02:05;;;;;;;2.35;0.40;;;;;;;19.88;70.94;101826.06;7343127;19;20019;-63
2022/08/29 00:04:33;;;;;;;4.55;0.50;;;;;;;19.90;71.01;101820.53;7378920;19;20079;-66
2022/08/29 00:07:00;;;;;;;2.33;0.50;;;;;;;19.87;70.56;101827.06;7380905;19;20036;-67
2022/08/29 00:09:31;;;;;;;3.65;0.40;;;;;;;19.83;71.37;101820.44;7379931;19;20015;-63
2022/08/29 00:12:00;;;;;;;2.13;0.50;;;;;;;19.78;71.36;101824.69;7381897;19;20011;-64
2022/08/29 00:14:27;;;;;;;4.00;0.50;;;;;;;19.78;71.29;101816.69;7378258;19;20039;-64
2022/08/29 00:16:54;;;;;;;2.88;0.40;;;;;;;19.73;71.44;101827.94;7378333;19;21253;-63
2022/08/29 00:19:26;;;;;;;1.38;0.40;;;;;;;19.68;71.54;101826.84;7376497;19;20014;-64
2022/08/29 00:21:57;;;;;;;2.15;0.50;;;;;;;19.67;72.06;101833.19;7376926;19;20017;-65
2022/08/29 00:24:24;;;;;;;2.35;0.45;;;;;;;19.63;72.07;101838.09;7378731;19;20158;-66
2022/08/29 00:26:52;;;;;;;4.53;0.57;;;;;;;19.58;72.26;101830.63;7381119;19;20608;-65
2022/08/29 00:29:26;;;;;;;3.25;0.50;;;;;;;19.59;72.28;101828.81;7378954;19;20368;-65
2022/08/29 00:31:56;;;;;;;5.25;0.43;;;;;;;19.52;72.60;101825.22;7380823;19;20098;-65
2022/08/29 00:34:23;;;;;;;2.42;0.60;;;;;;;19.49;72.71;101818.41;7377004;19;20678;-64
2022/08/29 00:36:51;;;;;;;1.70;0.40;;;;;;;19.44;72.90;101822.63;7381123;19;20015;-65
2022/08/29 00:39:28;;;;;;;2.90;0.50;;;;;;;19.40;73.39;101824.03;7378654;19;20047;-64
2022/08/29 00:42:00;;;;;;;4.38;0.50;;;;;;;19.38;73.50;101818.03;7381873;19;20022;-64
2022/08/29 00:44:28;;;;;;;2.45;0.60;;;;;;;19.39;73.51;101827.69;7380161;19;20021;-67
2022/08/29 00:47:01;;;;;;;2.65;0.80;;;;;;;19.39;73.46;101819.69;7382953;19;20016;-66
2022/08/29 00:49:38;;;;;;;;;;;;;;;19.40;73.20;101818.69;7379060;19;20014;-66
2022/08/29 00:52:13;;;;;;;2.17;0.40;;;;;;;19.38;73.35;101816.19;7383363;19;20270;-64
2022/08/29 00:54:44;;;;;;;1.35;0.43;;;;;;;19.39;73.45;101814.34;7380952;19;20122;-64
2022/08/29 00:57:12;;;;;;;1.42;0.50;;;;;;;19.40;73.55;101818.69;7381765;19;20118;-63
2022/08/29 00:59:40;;;;;;;3.33;0.50;;;;;;;19.40;73.52;101808.00;7381537;19;20035;-64
2022/08/29 01:02:09;;;;;;;1.88;0.50;;;;;;;19.39;73.95;101815.19;7382249;19;20015;-65
2022/08/29 01:04:38;;;;;;;4.70;0.70;;;;;;;19.40;73.53;101813.34;7377418;19;20011;-66
2022/08/29 01:07:07;;;;;;;5.15;0.50;;;;;;;19.40;73.59;101813.34;7381584;19;20489;-66
2022/08/29 01:09:37;;;;;;;3.38;0.50;;;;;;;19.40;73.82;101819.47;7379012;19;20010;-63
2022/08/29 01:12:15;;;;;;;1.65;0.50;;;;;;;19.42;73.71;101816.63;7381943;19;20010;-65
2022/08/29 01:14:53;;;;;;;2.45;0.30;;;;;;;19.39;73.84;101817.84;7378858;19;20018;-64
2022/08/29 01:17:29;;;;;;;5.03;0.60;;;;;;;19.41;73.77;101821.16;7379679;19;20621;-63
2022/08/29 01:20:05;;;;;;;2.92;0.40;;;;;;;19.42;74.18;101819.31;7377748;19;20042;-63
2022/08/29 01:22:59;;;;;;;2.10;0.40;;;;;;;19.43;73.99;101816.47;7380562;19;20010;-66
2022/08/29 01:25:32;;;;;;;2.03;0.75;;;;;;;19.44;73.56;101820.81;7380883;19;20042;-63
2022/08/29 01:28:06;;;;;;;;;;;;;;;19.49;73.56;101821.09;7381772;19;20011;-63
2022/08/29 01:30:34;;;;;;;3.55;0.52;;;;;;;19.46;73.36;101823.28;7382004;19;20347;-64
2022/08/29 01:33:01;;;;;;;2.20;0.40;;;;;;;19.43;73.91;101819.13;7387331;19;20367;-64
2022/08/29 01:35:30;;;;;;;3.90;0.60;;;;;;;19.39;74.07;101817.84;7386018;19;20508;-64
2022/08/29 01:37:59;;;;;;;2.15;0.50;;;;;;;19.37;74.56;101819.03;7384908;19;20090;-64
2022/08/29 01:40:29;;;;;;;1.67;0.40;;;;;;;19.36;74.62;101818.19;7386679;19;20533;-64
2022/08/29 01:42:56;;;;;;;2.50;0.50;;;;;;;19.37;74.19;101819.88;7388738;19;20115;-65
2022/08/29 01:45:23;;;;;;;2.83;0.70;;;;;;;19.36;74.05;101820.88;7390014;19;20014;-64
2022/08/29 01:47:51;;;;;;;1.38;0.40;;;;;;;19.37;74.06;101816.38;7389693;19;20011;-66
2022/08/29 01:50:19;;;;;;;2.30;0.47;;;;;;;19.37;74.11;101811.03;7387199;19;20022;-65
2022/08/29 01:52:46;;;;;;;3.50;0.85;;;;;;;19.34;74.16;101812.25;7389272;19;20463;-65
2022/08/29 01:55:13;;;;;;;5.70;0.57;;;;;;;19.32;74.29;101816.09;7387601;19;20033;-65
2022/08/29 01:57:41;;;;;;;3.50;0.43;;;;;;;19.32;74.47;101813.41;7386430;19;20014;-65
2022/08/29 02:00:10;;;;;;;2.20;0.50;;;;;;;19.30;74.30;101823.47;7386924;19;20126;-65
2022/08/29 02:02:39;;;;;;;1.83;0.60;;;;;;;19.29;74.39;101825.31;7388340;19;20586;-66
2022/08/29 02:05:07;;;;;;;2.80;0.50;;;;;;;19.26;74.93;101817.66;7384552;19;20014;-66
2022/08/29 02:07:34;;;;;;;3.67;0.60;;;;;;;19.22;75.27;101824.38;7388770;19;20018;-65
2022/08/29 02:10:03;;;;;;;4.25;0.60;;;;;;;19.25;74.98;101826.66;7386044;19;20021;-65
2022/08/29 02:12:30;;;;;;;3.92;0.52;;;;;;;19.25;75.12;101824.00;7388336;19;20006;-65
2022/08/29 02:14:58;;;;;;;2.45;0.80;;;;;;;19.22;75.02;101827.06;7385544;19;20014;-65
2022/08/29 02:17:26;;;;;;;1.92;0.50;;;;;;;19.21;75.08;101830.72;7388576;19;20014;-65
2022/08/29 02:19:53;;;;;;;3.70;0.50;;;;;;;19.21;75.23;101831.56;7384082;19;20030;-65
2022/08/29 02:22:21;;;;;;;3.05;0.40;;;;;;;19.21;75.46;101830.72;7389934;19;20014;-64
2022/08/29 02:24:48;;;;;;;3.53;0.60;;;;;;;19.21;75.33;101825.41;7385360;19;20031;-65
2022/08/29 02:27:15;;;;;;;1.95;0.43;;;;;;;19.18;75.17;101829.28;7389433;19;20677;-66
2022/08/29 02:29:42;;;;;;;2.97;0.50;;;;;;;19.17;75.45;101830.28;7386868;19;20022;-65
2022/08/29 02:32:14;;;;;;;4.50;0.45;;;;;;;19.16;75.25;101825.13;7389133;19;20006;-65
2022/08/29 02:34:44;;;;;;;3.10;0.50;;;;;;;19.10;75.45;101825.84;7382941;19;20014;-66
2022/08/29 02:37:15;;;;;;;2.28;0.50;;;;;;;19.03;75.96;101824.94;7385184;19;20015;-65
2022/08/29 02:39:42;;;;;;;2.00;0.60;;;;;;;19.01;76.13;101822.44;7383713;19;20099;-68
2022/08/29 02:42:09;;;;;;;3.13;0.50;;;;;;;19.02;76.21;101831.28;7387610;19;20014;-65
2022/08/29 02:44:37;;;;;;;1.67;0.45;;;;;;;19.01;75.75;101827.78;7380633;19;20026;-63
2022/08/29 02:47:04;;;;;;;3.25;0.40;;;;;;;18.98;76.34;101828.16;7388614;19;20082;-65
2022/08/29 02:49:33;;;;;;;4.03;0.45;;;;;;;19.00;76.59;101826.13;7383663;19;20359;-65
2022/08/29 02:52:01;;;;;;;3.53;0.52;;;;;;;18.99;76.16;101827.16;7388702;19;20039;-65
2022/08/29 02:54:28;;;;;;;1.83;0.40;;;;;;;18.99;75.70;101829.81;7384781;19;20040;-65
2022/08/29 02:56:55;;;;;;;2.13;0.40;;;;;;;18.95;76.46;101815.16;7386975;19;20063;-65
2022/08/29 02:59:27;;;;;;;4.05;0.80;;;;;;;18.93;76.27;101817.22;7384428;19;20322;-65
2022/08/29 03:01:57;;;;;;;2.92;0.50;;;;;;;18.92;76.45;101818.22;7386953;19;20034;-65
2022/08/29 03:04:24;;;;;;;3.35;0.50;;;;;;;18.93;76.20;101817.22;7382298;19;20018;-64
2022/08/29 03:06:52;;;;;;;2.50;0.45;;;;;;;18.94;76.13;101816.22;7386653;19;20336;-64
2022/08/29 03:09:26;;;;;;;2.42;0.50;;;;;;;18.94;76.20;101815.38;7383538;19;20521;-63
2022/08/29 03:11:56;;;;;;;2.95;0.47;;;;;;;18.92;76.42;101817.38;7387147;19;20616;-66
2022/08/29 03:14:24;;;;;;;3.08;0.60;;;;;;;18.91;76.55;101819.22;7385212;19;20309;-66
2022/08/29 03:16:51;;;;;;;3.15;0.45;;;;;;;18.93;76.44;101813.72;7385756;19;20409;-67
2022/08/29 03:19:28;;;;;;;2.17;0.70;;;;;;;18.99;75.73;101811.16;7381764;19;20018;-66
2022/08/29 03:22:03;;;;;;;2.05;0.50;;;;;;;18.91;76.24;101811.22;7386152;19;20355;-66
2022/08/29 03:24:30;;;;;;;1.08;0.40;;;;;;;18.86;76.38;101808.28;7382675;19;20022;-67
2022/08/29 03:26:57;;;;;;;1.95;0.47;;;;;;;18.86;76.77;101810.09;7386597;19;20010;-67
2022/08/29 03:29:27;;;;;;;1.98;0.40;;;;;;;18.86;76.77;101812.78;7386155;19;20503;-67
2022/08/29 03:31:58;;;;;;;5.28;0.50;;;;;;;18.89;76.39;101812.44;7387361;19;20014;-67
2022/08/29 03:34:27;;;;;;;4.53;0.52;;;;;;;18.88;76.56;101816.94;7379474;19;20022;-67
2022/08/29 03:36:55;;;;;;;3.05;0.57;;;;;;;18.85;76.23;101811.94;7384495;19;20367;-67
2022/08/29 03:39:29;;;;;;;2.35;0.70;;;;;;;18.81;76.53;101821.31;7383326;19;20458;-66
2022/08/29 03:41:59;;;;;;;1.33;0.40;;;;;;;18.81;76.61;101813.34;7380244;19;20020;-66
2022/08/29 03:44:35;;;;;;;3.15;0.55;;;;;;;18.79;76.56;101818.84;7382855;19;21028;-67
2022/08/29 03:47:03;;;;;;;4.43;0.60;;;;;;;18.76;77.18;101818.38;7386642;19;20022;-67
2022/08/29 03:49:31;;;;;;;4.50;0.63;;;;;;;18.74;76.90;101813.22;7380250;19;21139;-66
2022/08/29 03:51:58;;;;;;;2.20;0.60;;;;;;;18.73;76.81;101808.09;7385115;19;20017;-68
2022/08/29 03:54:26;;;;;;;3.97;0.50;;;;;;;18.72;77.18;101809.09;7382503;19;20025;-66
2022/08/29 03:56:54;;;;;;;2.88;0.40;;;;;;;18.70;77.32;101808.44;7384972;19;20422;-66
2022/08/29 03:59:21;;;;;;;3.55;0.50;;;;;;;18.70;77.29;101808.44;7384393;19;20582;-67
2022/08/29 04:01:49;;;;;;;2.85;0.47;;;;;;;18.70;77.09;101803.94;7386247;19;20471;-67
2022/08/29 04:07:05;;;;;;;3.72;0.77;;;;;;;18.65;77.16;101808.97;7384464;19;20082;-66
2022/08/29 04:09:32;;;;;;;2.03;0.55;;;;;;;18.62;77.34;101800.53;7383548;19;20018;-67
2022/08/29 04:11:59;;;;;;;1.88;0.50;;;;;;;18.60;77.57;101806.03;7384176;19;20334;-64
2022/08/29 04:14:26;;;;;;;2.03;0.60;;;;;;;18.62;77.64;101804.03;7382317;19;20731;-65
2022/08/29 04:16:53;;;;;;;2.83;0.43;;;;;;;18.55;77.73;101810.25;7385385;19;20007;-64
2022/08/29 04:19:21;;;;;;;2.78;0.70;;;;;;;18.53;78.05;101814.91;7381620;19;20018;-65
2022/08/29 04:21:48;;;;;;;2.40;0.50;;;;;;;18.48;78.11;101810.13;7384290;19;20014;-65
2022/08/29 04:24:15;;;;;;;2.53;0.50;;;;;;;18.45;78.45;101804.31;7382004;19;20014;-64
2022/08/29 04:26:42;;;;;;;1.60;0.60;;;;;;;18.45;78.67;101809.63;7384041;19;20035;-64
2022/08/29 04:29:12;;;;;;;2.58;0.38;;;;;;;18.42;78.91;101810.00;7381234;19;20413;-66
2022/08/29 04:31:41;;;;;;;3.17;0.65;;;;;;;18.43;78.86;101807.19;7383785;19;20010;-63
2022/08/29 04:34:10;;;;;;;4.82;0.40;;;;;;;18.45;78.92;101806.97;7380283;19;20014;-64
2022/08/29 04:36:44;;;;;;;2.10;0.50;;;;;;;18.44;78.75;101811.47;7383428;19;20463;-64
2022/08/29 04:39:11;;;;;;;2.50;0.40;;;;;;;18.44;79.08;101816.81;7378999;19;20436;-64
2022/08/29 04:41:39;;;;;;;2.63;0.50;;;;;;;18.42;79.09;101810.84;7383391;19;20074;-64
2022/08/29 04:44:08;;;;;;;2.20;0.60;;;;;;;18.42;79.26;101812.69;7382039;19;20029;-65
2022/08/29 04:46:35;;;;;;;3.38;0.47;;;;;;;18.41;79.26;101808.34;7383565;19;20010;-64
2022/08/29 04:49:03;;;;;;;2.85;0.50;;;;;;;18.36;79.42;101811.56;7380238;19;20010;-64
2022/08/29 04:51:34;;;;;;;1.33;0.43;;;;;;;18.31;79.79;101816.59;7382244;19;20025;-63
2022/08/29 04:54:03;;;;;;;5.00;0.50;;;;;;;18.30;79.95;101821.09;7381679;19;20006;-62
2022/08/29 04:56:30;;;;;;;0.98;0.40;;;;;;;18.31;80.23;101832.59;7381725;19;20014;-64
2022/08/29 04:58:57;;;;;;;2.53;0.50;;;;;;;18.33;79.85;101833.25;7378030;19;20021;-63
2022/08/29 05:01:24;;;;;;;4.30;0.40;;;;;;;18.34;80.13;101840.22;7380645;19;20013;-64
2022/08/29 05:03:54;;;;;;;2.25;0.55;;;;;;;18.27;80.41;101837.44;7380866;19;20018;-66
2022/08/29 05:06:22;;;;;;;2.78;0.50;;;;;;;18.24;80.41;101832.47;7382761;19;20458;-66
2022/08/29 05:08:51;;;;;;;1.92;0.50;;;;;;;18.20;80.91;101833.00;7388893;19;20759;-64
2022/08/29 05:11:28;;;;;;;6.57;0.70;;;;;;;18.19;80.95;101829.50;7389268;19;20460;-63
2022/08/29 05:13:55;;;;;;;3.72;0.50;;;;;;;18.17;81.22;101836.84;7389014;19;20014;-64
2022/08/29 05:16:22;;;;;;;4.78;0.80;;;;;;;18.16;81.59;101829.88;7389314;19;20010;-64
2022/08/29 05:18:49;;;;;;;3.90;0.40;;;;;;;18.19;81.43;101837.50;7386340;19;20011;-64
2022/08/29 05:21:30;;;;;;;1.40;0.40;;;;;;;18.19;81.39;101840.16;7385686;19;20010;-64
2022/08/29 05:24:06;;;;;;;1.00;0.30;;;;;;;18.23;81.53;101841.47;7388730;19;20021;-64
2022/08/29 05:26:37;;;;;;;1.75;0.40;;;;;;;18.28;81.22;101844.44;7390261;19;20122;-64
2022/08/29 05:29:07;;;;;;;2.80;0.45;;;;;;;18.31;80.74;101853.91;7387581;19;20080;-64
2022/08/29 05:31:36;;;;;;;3.15;0.65;;;;;;;18.30;80.78;101857.56;7387436;19;20014;-64
2022/08/29 05:34:04;;;;;;;3.95;0.40;;;;;;;18.34;80.76;101854.38;7386627;19;20014;-63
2022/08/29 05:36:51;;;;;;;1.15;0.43;;;;;;;18.34;80.48;101861.53;7389040;19;20010;-65
2022/08/29 05:39:18;;;;;;;1.35;0.40;;;;;;;18.28;81.05;101859.59;7385368;19;20078;-66
2022/08/29 05:41:45;;;;;;;1.63;0.40;;;;;;;18.27;81.60;101860.59;7389151;19;20085;-65
2022/08/29 05:44:12;;;;;;;1.10;0.60;;;;;;;18.25;81.55;101860.75;7385679;19;20564;-66
2022/08/29 05:46:39;;;;;;;2.72;0.60;;;;;;;18.27;81.83;101857.94;7388261;19;20014;-66
2022/08/29 05:49:06;;;;;;;3.22;0.50;;;;;;;18.29;81.81;101854.06;7386223;19;20473;-66
2022/08/29 05:51:33;;;;;;;1.85;0.50;;;;;;;18.35;81.46;101865.84;7389232;19;20010;-66
2022/08/29 05:54:05;;;;;;;2.22;0.50;;;;;;;18.38;81.31;101857.53;7387255;19;20696;-66
2022/08/29 05:56:33;;;;;;;1.40;0.40;;;;;;;18.41;81.07;101861.66;7388812;19;20010;-66
2022/08/29 05:59:00;;;;;;;4.28;0.60;;;;;;;18.41;80.81;101853.66;7382326;19;20038;-65
2022/08/29 06:01:30;;;;;;;3.92;0.60;;;;;;;18.42;81.21;101861.47;7388521;19;20367;-64
2022/08/29 06:03:58;;;;;;;4.10;0.50;;;;;;;18.43;81.50;101857.81;7385784;19;20010;-65
2022/08/29 06:06:27;;;;;;;1.90;0.77;;;;;;;18.49;81.32;101850.94;7385690;19;20018;-65
2022/08/29 06:08:56;;;;;;;2.65;0.43;;;;;;;18.52;80.78;101848.75;7385997;19;20553;-65
2022/08/29 06:11:29;;;;;;;3.20;0.50;;;;;;;18.56;80.34;101850.06;7386166;19;20025;-64
2022/08/29 06:13:58;;;;;;;2.33;0.60;;;;;;;18.59;80.36;101854.22;7385129;19;20029;-69
2022/08/29 06:16:27;;;;;;;4.03;0.40;;;;;;;18.60;80.27;101853.19;7386832;19;20032;-64
2022/08/29 06:18:54;;;;;;;5.35;1.00;;;;;;;18.63;80.24;101858.19;7378808;19;20006;-64
2022/08/29 06:21:21;;;;;;;3.03;0.50;;;;;;;18.63;80.25;101860.84;7385770;19;20018;-64
2022/08/29 06:23:49;;;;;;;2.83;0.63;;;;;;;18.64;80.40;101863.31;7386764;19;20490;-64
2022/08/29 06:26:16;;;;;;;2.47;0.40;;;;;;;18.66;80.08;101860.47;7387233;19;20011;-65
2022/08/29 06:28:45;;;;;;;3.42;0.52;;;;;;;18.67;79.94;101854.97;7386025;19;20020;-64
2022/08/29 06:31:20;;;;;;;2.80;0.60;;;;;;;18.71;79.38;101858.94;7384298;19;20106;-65
2022/08/29 06:33:51;;;;;;;4.18;0.50;;;;;;;18.73;79.25;101861.44;7386182;19;20010;-64
2022/08/29 06:36:19;;;;;;;2.65;1.40;;;;;;;18.74;79.32;101858.56;7384710;19;20014;-63
2022/08/29 06:38:46;;;;;;;4.38;0.60;;;;;;;18.75;79.46;101860.22;7384039;19;20291;-63
2022/08/29 06:41:16;;;;;;;4.55;0.60;;;;;;;18.78;79.48;101867.03;7385767;19;20006;-65
2022/08/29 06:43:43;;;;;;;4.05;0.82;;;;;;;18.79;79.06;101866.03;7385852;19;20018;-64
2022/08/29 06:46:26;;;;;;;1.90;0.60;;;;;;;18.77;79.25;101863.53;7384203;19;20014;-65
2022/08/29 06:48:55;;;;;;;1.33;0.50;;;;;;;18.77;79.05;101862.72;7384458;19;20015;-64
2022/08/29 06:51:22;;;;;;;3.42;0.50;;;;;;;18.84;78.56;101871.66;7385483;19;20019;-65
2022/08/29 06:53:49;;;;;;;2.75;0.60;;;;;;;18.82;78.84;101872.84;7382025;19;20038;-64
2022/08/29 06:56:16;;;;;;;2.53;0.70;;;;;;;18.87;78.34;101868.63;7385997;19;20037;-66
2022/08/29 06:58:44;;;;;;;3.17;0.60;;;;;;;18.88;78.59;101880.94;7381506;19;20627;-67
2022/08/29 07:01:16;;;;;;;5.55;0.50;;;;;;;18.86;78.21;101871.47;7384145;19;20455;-65
2022/08/29 07:03:44;;;;;;;4.32;0.55;;;;;;;18.83;78.41;101870.00;7386839;19;20082;-67
2022/08/29 07:06:12;;;;;;;4.30;0.52;;;;;;;18.85;78.46;101875.13;7383494;19;20412;-66
2022/08/29 07:08:39;;;;;;;2.00;0.40;;;;;;;18.88;78.22;101878.28;7386418;19;20486;-66
2022/08/29 07:11:22;;;;;;;2.58;0.73;;;;;;;18.85;78.26;101883.13;7384294;19;20007;-66
2022/08/29 07:13:49;;;;;;;3.30;0.40;;;;;;;18.85;79.00;101883.13;7384195;19;20014;-66
2022/08/29 07:16:17;;;;;;;4.90;0.50;;;;;;;18.90;77.96;101878.09;7385833;19;20020;-66
2022/08/29 07:18:45;;;;;;;2.28;0.50;;;;;;;18.90;78.24;101875.41;7382987;19;20010;-66
2022/08/29 07:21:16;;;;;;;4.57;0.40;;;;;;;18.91;78.12;101879.75;7382518;19;20078;-66
2022/08/29 07:23:51;;;;;;;4.20;0.50;;;;;;;18.88;78.23;101885.47;7383797;19;20722;-66
2022/08/29 07:26:28;;;;;;;1.45;0.47;;;;;;;18.86;78.70;101877.63;7382054;19;20038;-67
2022/08/29 07:28:58;;;;;;;2.40;0.52;;;;;;;18.92;79.00;101874.25;7381614;19;20363;-66
2022/08/29 07:31:28;;;;;;;3.53;0.50;;;;;;;18.96;78.04;101875.53;7384858;19;20463;-64
2022/08/29 07:33:57;;;;;;;2.45;0.40;;;;;;;19.01;78.18;101873.13;7383717;19;20303;-64
2022/08/29 07:36:29;;;;;;;1.48;0.43;;;;;;;19.04;77.81;101870.13;7382274;19;20099;-65
2022/08/29 07:38:55;;;;;;;2.88;0.50;;;;;;;19.06;77.55;101877.94;7380268;19;20028;-63
2022/08/29 07:41:23;;;;;;;5.72;0.50;;;;;;;19.08;77.48;101868.75;7383878;19;20504;-66
2022/08/29 07:43:50;;;;;;;1.33;0.30;;;;;;;19.12;77.72;101877.22;7382200;19;20530;-65
2022/08/29 07:46:19;;;;;;;2.58;0.60;;;;;;;19.16;78.38;101873.97;7384538;19;20010;-65
2022/08/29 07:48:47;;;;;;;2.83;0.40;;;;;;;19.22;77.13;101872.44;7383164;19;20022;-67
2022/08/29 07:51:17;;;;;;;2.00;0.52;;;;;;;19.26;76.92;101879.03;7381846;19;20017;-64
2022/08/29 07:53:45;;;;;;;2.97;0.50;;;;;;;19.28;76.62;101881.53;7383583;19;20021;-64
2022/08/29 07:56:17;;;;;;;2.83;0.40;;;;;;;19.28;76.55;101876.19;7382908;19;20013;-65
2022/08/29 07:58:44;;;;;;;4.15;0.45;;;;;;;19.28;76.30;101879.72;7381176;19;20098;-65
2022/08/29 08:01:11;;;;;;;1.38;0.30;;;;;;;19.30;76.45;101884.88;7383185;19;20010;-67
2022/08/29 08:03:47;;;;;;;1.88;0.38;;;;;;;19.33;75.87;101887.16;7381632;19;20351;-65
2022/08/29 08:06:16;;;;;;;4.50;0.40;;;;;;;19.31;76.39;101878.50;7381558;19;20065;-65
2022/08/29 08:08:43;;;;;;;3.40;0.30;;;;;;;19.33;76.11;101881.81;7382476;19;20030;-64
2022/08/29 08:11:10;;;;;;;2.47;0.40;;;;;;;19.35;75.08;101871.81;7382577;19;20363;-65
2022/08/29 08:13:37;;;;;;;1.58;0.30;;;;;;;19.33;75.06;101882.66;7381440;19;20026;-64
2022/08/29 08:16:06;;;;;;;3.85;0.60;;;;;;;19.33;75.02;101879.97;7383702;19;20170;-65
2022/08/29 08:18:35;;;;;;;0.68;0.22;;;;;;;19.37;74.15;101885.78;7381551;19;20443;-65
2022/08/29 08:21:06;;;;;;;1.58;0.40;;;;;;;19.41;73.74;101881.72;7380683;19;20014;-64
2022/08/29 08:23:33;;;;;;;2.30;0.45;;;;;;;19.42;73.38;101881.53;7381872;19;20007;-64
2022/08/29 08:26:00;;;;;;;1.35;0.40;;;;;;;19.53;71.60;101880.28;7383028;19;20018;-64
2022/08/29 08:28:29;;;;;;;0.82;0.30;;;;;;;19.55;70.59;101884.44;7378395;19;20014;-62
2022/08/29 08:31:05;;;;;;;1.27;0.30;;;;;;;19.64;69.66;101883.31;7381217;19;20011;-64
2022/08/29 08:33:34;;;;;;;2.90;0.30;;;;;;;19.63;69.56;101889.66;7382761;19;20014;-63
2022/08/29 08:36:02;;;;;;;1.77;0.30;;;;;;;19.66;69.21;101882.31;7377746;19;20362;-64
2022/08/29 08:38:30;;;;;;;1.52;0.30;;;;;;;19.71;68.84;101890.59;7380698;19;20028;-64
2022/08/29 08:41:19;;;;;;;0.88;0.30;;;;;;;19.74;68.62;101884.88;7381110;19;20311;-64
2022/08/29 08:43:56;;;;;;;0.43;0.20;;;;;;;19.73;69.10;101891.22;7388459;19;20712;-62
2022/08/29 08:46:37;;;;;;;3.65;0.40;;;;;;;19.78;68.56;101881.63;7388457;19;20817;-64
2022/08/29 08:49:11;;;;;;;5.47;0.43;;;;;;;19.80;68.52;101887.63;7385920;19;20037;-63
2022/08/29 08:51:43;;;;;;;1.70;0.35;;;;;;;19.86;68.24;101884.19;7390073;19;20435;-63
2022/08/29 08:54:19;;;;;;;1.85;0.43;;;;;;;19.87;67.75;101890.34;7388875;19;20029;-65
2022/08/29 08:56:56;;;;;;;1.75;0.40;;;;;;;19.91;67.94;101876.44;7388084;19;20007;-64
2022/08/29 08:59:34;;;;;;;3.13;0.30;;;;;;;20.01;66.85;101884.97;7386591;19;20010;-64
2022/08/29 09:02:08;;;;;;;0.80;0.30;;;;;;;20.14;66.07;101878.97;7387987;19;20275;-64
2022/08/29 09:04:39;;;;;;;1.30;0.50;;;;;;;20.12;65.74;101872.97;7383804;19;20018;-63
2022/08/29 09:07:34;;;;;;;1.70;0.40;;;;;;;20.14;64.42;101878.97;7388664;19;20014;-63
2022/08/29 09:10:20;;;;;;;2.65;0.35;;;;;;;20.08;64.84;101874.34;7387572;19;20014;-63
2022/08/29 09:12:57;;;;;;;1.58;0.30;;;;;;;20.06;65.67;101882.56;7388593;19;20747;-66
2022/08/29 09:15:32;;;;;;;0.93;0.30;;;;;;;20.03;65.11;101884.78;7388489;19;20019;-64
2022/08/29 09:18:06;;;;;;;3.25;0.40;;;;;;;20.05;64.84;101880.09;7386239;19;20007;-67
2022/08/29 09:20:38;;;;;;;0.63;0.30;;;;;;;20.08;64.46;101885.06;7386242;19;20011;-67
2022/08/29 09:23:27;;;;;;;1.83;0.40;;;;;;;20.06;64.70;101871.88;7388899;19;20493;-67
2022/08/29 09:25:54;;;;;;;1.48;0.40;;;;;;;20.09;65.08;101868.00;7385801;19;20011;-65
2022/08/29 09:28:21;;;;;;;3.42;0.60;;;;;;;20.14;64.84;101878.97;7387398;19;20011;-67
2022/08/29 09:31:16;;;;;;;1.65;0.40;;;;;;;20.28;64.84;101875.41;7388364;19;20534;-67
2022/08/29 09:33:53;;;;;;;2.15;0.30;;;;;;;20.33;64.71;101883.69;7386607;19;20017;-62
2022/08/29 09:36:44;;;;;;;1.95;0.32;;;;;;;20.40;64.52;101878.44;7387811;19;20368;-64
2022/08/29 09:39:23;;;;;;;2.78;0.40;;;;;;;20.42;63.72;101882.56;7385800;19;20018;-65
2022/08/29 09:41:53;;;;;;;2.17;0.40;;;;;;;20.44;63.89;101877.03;7387892;19;20014;-64
2022/08/29 09:44:23;;;;;;;1.10;0.25;;;;;;;20.42;64.22;101876.38;7384996;19;20082;-67
2022/08/29 09:47:20;;;;;;;6.47;0.60;;;;;;;20.40;64.49;101878.44;7387984;19;20494;-67
2022/08/29 09:50:16;;;;;;;2.83;0.50;;;;;;;20.48;63.91;101878.28;7383890;19;20450;-67
2022/08/29 09:53:08;;;;;;;2.75;0.40;;;;;;;20.60;62.65;101879.44;7388007;19;20077;-66
2022/08/29 09:55:51;;;;;;;1.92;0.40;;;;;;;20.62;62.04;101882.72;7384928;19;20015;-66
2022/08/29 09:58:18;;;;;;;3.30;0.47;;;;;;;20.63;62.34;101875.53;7385014;19;20497;-66
2022/08/29 10:01:12;;;;;;;1.83;0.93;;;;;;;20.62;62.26;101880.06;7386477;19;20018;-64
2022/08/29 10:03:42;;;;;;;1.90;0.40;;;;;;;20.59;62.00;101879.63;7385724;19;20018;-66
2022/08/29 10:06:21;;;;;;;1.73;0.50;;;;;;;20.67;59.33;101868.81;7385434;19;20467;-66
2022/08/29 10:09:01;;;;;;;0.70;0.40;;;;;;;20.66;59.41;101873.31;7385193;19;20007;-66
2022/08/29 10:11:31;;;;;;;2.10;0.40;;;;;;;20.72;58.94;101874.41;7384625;19;20018;-67
2022/08/29 10:14:02;;;;;;;2.90;0.50;;;;;;;20.72;59.20;101871.72;7385977;19;20014;-67
2022/08/29 10:16:44;;;;;;;2.78;0.40;;;;;;;20.71;59.13;101868.22;7383683;19;20014;-63
2022/08/29 10:19:14;;;;;;;2.08;0.40;;;;;;;20.71;59.61;101876.25;7380583;19;20568;-64
2022/08/29 10:22:28;;;;;;;1.80;0.40;;;;;;;20.77;60.86;101877.31;7386164;19;20086;-64
2022/08/29 10:25:23;;;;;;;1.38;0.32;;;;;;;20.91;58.21;101882.56;7384802;19;20393;-65
2022/08/29 10:28:05;;;;;;;2.85;0.38;;;;;;;20.96;57.74;101883.84;7383429;19;20515;-64
2022/08/29 10:30:42;;;;;;;1.23;0.30;;;;;;;20.96;58.07;101878.47;7387512;19;20018;-63
2022/08/29 10:33:30;;;;;;;1.83;0.50;;;;;;;20.94;57.50;101876.00;7384813;19;20445;-64
2022/08/29 10:36:15;;;;;;;1.13;0.30;;;;;;;20.91;58.22;101873.72;7382142;19;20014;-66
2022/08/29 10:38:45;;;;;;;2.03;0.52;;;;;;;20.91;58.62;101874.56;7383348;19;20018;-66
2022/08/29 10:41:24;;;;;;;1.67;0.50;;;;;;;20.93;58.48;101871.66;7382868;19;20483;-66
2022/08/29 10:44:31;;;;;;;2.30;0.50;;;;;;;21.00;56.81;101871.72;7384507;19;20456;-67
2022/08/29 10:47:10;;;;;;;0.88;0.30;;;;;;;21.03;56.92;101860.63;7385742;19;20130;-66
2022/08/29 10:50:00;;;;;;;2.47;0.40;;;;;;;21.09;56.50;101860.66;7381033;19;20010;-66
2022/08/29 10:52:52;;;;;;;2.45;0.52;;;;;;;21.12;56.33;101862.13;7385227;19;20035;-65
2022/08/29 10:55:47;;;;;;;1.40;0.40;;;;;;;21.10;56.09;101862.31;7380614;19;20542;-66
2022/08/29 10:58:26;;;;;;;1.20;0.40;;;;;;;21.15;55.63;101854.53;7382155;19;20018;-66
2022/08/29 11:01:00;;;;;;;1.17;0.38;;;;;;;21.20;55.47;101854.78;7383820;19;20485;-66
2022/08/29 11:03:51;;;;;;;3.38;0.40;;;;;;;21.26;55.37;101850.50;7385770;19;20022;-66
2022/08/29 11:06:23;;;;;;;2.28;0.40;;;;;;;21.29;54.73;101845.56;7382743;19;20041;-65
2022/08/29 11:09:05;;;;;;;1.73;0.40;;;;;;;21.24;54.89;101841.81;7384337;19;20010;-64
2022/08/29 11:11:35;;;;;;;2.07;0.50;;;;;;;21.18;55.54;101850.66;7385160;19;20029;-67
2022/08/29 11:14:07;;;;;;;5.10;0.50;;;;;;;21.18;55.21;101842.63;7383469;19;20358;-65
2022/08/29 11:16:44;;;;;;;2.40;0.45;;;;;;;21.19;55.73;101842.41;7384991;19;20355;-66
2022/08/29 11:19:19;;;;;;;1.88;0.50;;;;;;;21.19;55.96;101846.94;7381149;19;20025;-65
2022/08/29 11:22:17;;;;;;;1.55;0.43;;;;;;;21.31;54.94;101851.56;7383265;19;20014;-66
2022/08/29 11:24:55;;;;;;;2.03;0.40;;;;;;;21.34;54.62;101845.78;7380440;19;20011;-66
2022/08/29 11:27:53;;;;;;;2.55;0.30;;;;;;;21.34;54.83;101850.31;7383535;19;20015;-66
2022/08/29 11:30:44;;;;;;;3.53;0.60;;;;;;;21.34;55.15;101847.63;7384694;19;20017;-63
2022/08/29 11:33:31;;;;;;;2.10;0.40;;;;;;;21.38;55.55;101840.06;7384091;19;20371;-64
2022/08/29 11:36:32;;;;;;;2.75;0.50;;;;;;;21.43;55.81;101835.75;7379391;19;20020;-63
2022/08/29 11:39:17;;;;;;;3.05;0.40;;;;;;;21.51;55.80;101829.38;7382279;19;20018;-63
2022/08/29 11:41:49;;;;;;;2.65;0.40;;;;;;;21.52;54.75;101826.53;7383064;19;20009;-63
2022/08/29 11:44:30;;;;;;;1.33;0.43;;;;;;;21.62;53.18;101826.97;7383153;19;20142;-63
2022/08/29 11:46:57;;;;;;;1.30;0.32;;;;;;;21.66;53.67;101819.34;7383796;19;20025;-64
2022/08/29 11:49:37;;;;;;;1.13;0.40;;;;;;;21.69;53.24;101827.81;7379730;19;20086;-64
2022/08/29 11:52:07;;;;;;;2.53;0.40;;;;;;;21.68;52.36;101818.13;7384917;19;20443;-63
2022/08/29 11:54:33;;;;;;;1.10;0.40;;;;;;;21.66;52.82;101822.03;7381411;19;20019;-64